CW2613 Weather Reports


Display with metric or nautical units.
time (UTC)temp
F
wind
direction
speed
MPH
gust
MPH
rain 1hr
in
rain 24hr
in
rain mn
in
humidity
%
barometer
mb
20180717035451 78 189 0.0 0.0 0.00 0.00 0.00 91 1018.2
20180717033947 78 189 0.0 0.0 0.00 0.00 0.00 91 1018.1
20180717032447 78 189 0.0 0.0 0.00 0.00 0.00 90 1018.1
20180717030950 78 189 0.0 0.0 0.00 0.00 0.00 89 1018.1
20180717025444 79 189 0.0 0.0 0.00 0.00 0.00 87 1018.0
20180717023945 80 189 0.0 0.0 0.00 0.00 0.00 87 1018.1
20180717022446 80 189 0.0 0.0 0.00 0.00 0.00 84 1017.9
20180717020945 81 189 0.0 0.0 0.00 0.00 0.00 83 1017.7
20180717015444 81 189 0.0 2.0 0.00 0.00 0.00 83 1017.7
20180717013942 81 188 0.0 2.0 0.00 0.00 0.00 83 1017.5
20180717012445 81 189 0.0 0.0 0.00 0.00 0.00 82 1017.2
20180717010942 82 195 0.0 0.0 0.00 0.00 0.00 81 1017.1
20180717005441 82 196 0.0 0.0 0.00 0.00 0.00 79 1017.0
20180717003944 83 193 0.0 0.0 0.00 0.00 0.00 78 1016.9
20180717002440 84 189 0.0 2.0 0.00 0.00 0.00 75 1016.8
20180717000939 85 246 0.0 3.0 0.00 0.00 0.00 72 1016.7
20180716235439 87 219 0.0 3.0 0.00 0.00 0.00 69 1016.4
20180716233938 89 208 0.0 4.0 0.00 0.00 0.00 66 1016.4
20180716232439 89 142 0.0 6.0 0.00 0.00 0.00 65 1016.1
20180716230941 89 205 1.0 7.0 0.00 0.00 0.00 64 1015.9
20180716225439 90 186 1.0 6.0 0.00 0.00 0.00 63 1015.7
20180716223939 90 136 3.0 6.0 0.00 0.00 0.00 61 1015.5
20180716222437 91 195 2.0 7.0 0.00 0.00 0.00 57 1015.3
20180716220933 91 215 1.0 6.0 0.00 0.00 0.00 60 1015.5
20180716215431 91 117 3.0 10.0 0.00 0.00 0.00 59 1015.8
20180716213930 92 207 1.0 5.0 0.00 0.00 0.00 60 1016.2
20180716212432 91 172 3.0 8.0 0.00 0.00 0.00 60 1016.4
20180716210928 91 139 4.0 9.0 0.00 0.00 0.00 60 1016.5
20180716205426 90 146 3.0 13.0 0.00 0.00 0.00 64 1016.4
20180716203929 91 193 3.0 7.0 0.00 0.00 0.00 61 1016.3
20180716202428 91 181 5.0 14.0 0.00 0.00 0.00 58 1016.2
20180716200929 91 139 0.0 8.0 0.00 0.00 0.00 62 1016.2
20180716195426 91 112 3.0 10.0 0.00 0.00 0.00 60 1016.4
20180716193923 94 93 5.0 11.0 0.00 0.00 0.00 56 1016.3
20180716192419 96 230 1.0 7.0 0.00 0.00 0.00 48 1016.2
20180716190919 96 102 1.0 6.0 0.00 0.00 0.00 47 1016.3
20180716185420 96 197 0.0 5.0 0.00 0.00 0.00 48 1016.5
20180716183914 95 290 0.0 3.0 0.00 0.00 0.00 50 1016.6
20180716182409 94 208 0.0 5.0 0.00 0.00 0.00 50 1016.9
20180716180911 93 224 0.0 4.0 0.00 0.00 0.00 53 1017.1
20180716175411 94 173 1.0 5.0 0.00 0.00 0.00 52 1017.3
20180716173904 93 219 1.0 5.0 0.00 0.00 0.00 54 1017.5
20180716172403 94 224 0.0 8.0 0.00 0.00 0.00 54 1017.7
20180716170900 93 193 0.0 4.0 0.00 0.00 0.00 55 1017.7
20180716165400 93 86 2.0 6.0 0.00 0.00 0.00 53 1018.0
20180716163901 92 163 0.0 5.0 0.00 0.00 0.00 56 1017.9
20180716162356 92 144 2.0 5.0 0.00 0.00 0.00 55 1017.9
20180716160856 92 228 2.0 5.0 0.00 0.00 0.00 52 1018.1
20180716155354 92 134 3.0 5.0 0.00 0.00 0.00 57 1018.0
20180716153851 90 153 2.0 8.0 0.00 0.00 0.00 58 1018.1
20180716152351 90 204 0.0 5.0 0.00 0.00 0.00 65 1018.2
20180716150850 90 160 3.0 5.0 0.00 0.00 0.00 59 1018.2
20180716145347 90 233 0.0 5.0 0.00 0.01 0.00 62 1018.1
20180716143844 90 101 0.0 4.0 0.00 0.01 0.00 63 1018.1
20180716142346 90 189 0.0 3.0 0.00 0.01 0.00 66 1017.8
20180716140841 89 229 0.0 6.0 0.00 0.01 0.00 68 1017.8
20180716135343 88 356 0.0 3.0 0.00 0.01 0.00 68 1017.9
20180716133835 86 248 0.0 1.0 0.00 0.01 0.00 74 1018.0
20180716132333 86 248 0.0 3.0 0.00 0.01 0.00 74 1017.9
20180716130834 86 264 0.0 3.0 0.00 0.01 0.00 78 1017.8
20180716125329 85 144 0.0 4.0 0.00 0.01 0.00 79 1017.8
20180716123823 84 247 0.0 3.0 0.00 0.01 0.00 81 1017.7
20180716122319 82 199 0.0 0.0 0.00 0.01 0.00 85 1017.5
20180716120818 81 179 0.0 2.0 0.00 0.01 0.00 86 1017.4
20180716115312 80 202 0.0 0.0 0.00 0.01 0.00 91 1017.3
20180716113809 77 202 0.0 0.0 0.00 0.01 0.00 98 1017.2
20180716112309 74 202 0.0 0.0 0.00 0.01 0.00 98 1017.1
20180716110808 73 202 0.0 0.0 0.00 0.01 0.00 98 1016.9
20180716105306 73 202 0.0 0.0 0.00 0.01 0.00 98 1016.8
20180716103805 73 202 0.0 0.0 0.00 0.01 0.00 98 1016.7
20180716100803 73 202 0.0 0.0 0.00 0.01 0.00 98 1016.7
20180716095305 73 202 0.0 0.0 0.00 0.01 0.00 98 1016.7
20180716093805 73 202 0.0 0.0 0.00 0.01 0.00 98 1016.5
20180716092305 73 202 0.0 0.0 0.00 0.01 0.00 98 1016.4
20180716090803 73 202 0.0 0.0 0.00 0.01 0.00 98 1016.5
20180716085306 73 202 0.0 0.0 0.00 0.01 0.00 98 1016.4
20180716083802 73 202 0.0 0.0 0.00 0.01 0.00 98 1016.3
20180716082301 73 202 0.0 0.0 0.00 0.01 0.00 98 1016.3
20180716080802 73 202 0.0 0.0 0.00 0.01 0.00 97 1016.3
20180716075257 74 202 0.0 0.0 0.00 0.01 0.00 97 1016.2
20180716073757 73 202 0.0 0.0 0.00 0.01 0.00 97 1016.2
20180716072255 73 202 0.0 0.0 0.00 0.01 0.00 97 1016.3
20180716070753 74 202 0.0 0.0 0.00 0.01 0.00 97 1016.4
20180716065250 74 202 0.0 0.0 0.00 0.01 0.00 97 1016.5
20180716063748 74 202 0.0 0.0 0.00 0.01 0.00 97 1016.7
20180716062249 74 202 0.0 0.0 0.00 0.01 0.00 97 1016.8
20180716060748 74 202 0.0 0.0 0.00 0.01 0.00 96 1016.9
20180716055247 74 202 0.0 0.0 0.00 0.01 0.00 96 1017.0
20180716053741 74 202 0.0 0.0 0.00 0.01 0.00 96 1017.2
20180716052240 75 202 0.0 0.0 0.00 0.01 0.00 95 1017.3
20180716050738 75 202 0.0 0.0 0.00 0.01 0.00 95 1017.4
20180716045236 75 202 0.0 0.0 0.00 0.01 0.00 94 1017.4
20180716043736 75 202 0.0 0.0 0.00 0.01 0.00 93 1017.4
20180716042232 76 202 0.0 0.0 0.00 0.01 0.00 93 1017.5
20180716040730 76 202 0.0 0.0 0.00 0.01 0.00 92 1017.4